Flight Track Log - Related Links

Times and Time Zones

All times are in EDT time to prevent confusion due to time zone crossing. See the SWA1533 flight status page for this flight to view local times or setup timezone preferences in your user account.

Time Position Orientation Groundspeed Altitude Reporting Facility
EDT Latitude Longitude Course Direction KTS MPH feet Rate Location/Type
Mon 07:02:17 PM 42.9500 -71.4333 270° West 148 170 1,200  Level KA90
Mon 07:02:35 PM 42.9500 -71.4500 270° West 161 185 1,700 2,495 Climbing KA90
Mon 07:03:58 PM 43.0192 -71.4347 North 213 245 5,400 2,542 Climbing Boston Center
Mon 07:04:59 PM 43.0286 -71.3381 82° East 211 243 7,800 2,876 Climbing Boston Center
Mon 07:05:59 PM 43.0275 -71.2217 91° East 281 323 11,200 4,100 Climbing Boston Center
Mon 07:06:59 PM 43.0028 -71.0744 103° East 336 387 16,000 3,620 Climbing Boston Center
Mon 07:08:00 PM 42.9619 -70.9647 117° Southeast 363 418 18,500 2,777 Climbing Boston Center
Mon 07:09:00 PM 42.8511 -70.9506 175° South 335 386 21,600 3,074 Climbing Boston Center
Mon 07:10:01 PM 42.7436 -71.0011 199° South 344 396 24,700 2,521 Climbing Boston Center
Mon 07:10:59 PM 42.6586 -71.0425 200° South 369 425 26,600 2,441 Climbing Boston Center
Mon 07:11:59 PM 42.5261 -71.1075 200° South 405 466 29,500 2,826 Climbing Boston Center
Mon 07:13:00 PM 42.4203 -71.1717 204° Southwest 419 482 32,300 2,213 Climbing Boston Center
Mon 07:14:01 PM 42.3739 -71.2992 244° Southwest 367 422 34,000 864 Climbing Boston Center
Mon 07:14:58 PM 42.3356 -71.4347 249° West 379 436 34,000  Level Boston Center
Mon 07:15:58 PM 42.2928 -71.5644 246° West 384 442 34,000  Level Boston Center
Mon 07:17:00 PM 42.2542 -71.6939 248° West 384 442 34,000  Level Boston Center
Mon 07:17:58 PM 42.2153 -71.8233 248° West 379 436 34,000  Level Boston Center
Mon 07:19:00 PM 42.1722 -71.9500 245° Southwest 379 436 34,000  Level Boston Center
Mon 07:20:01 PM 42.1331 -72.0817 248° West 379 436 34,000  Level Boston Center
Mon 07:20:58 PM 42.0917 -72.2106 247° West 379 436 34,000  Level Boston Center
Mon 07:21:59 PM 42.0522 -72.3367 247° West 379 436 34,000  Level Boston Center
Mon 07:22:59 PM 42.0128 -72.4653 248° West 379 436 34,000  Level Boston Center
Mon 07:24:00 PM 41.9711 -72.5936 246° West 379 436 34,000  Level Boston Center
Mon 07:25:00 PM 41.9311 -72.6997 243° Southwest 374 430 34,000  Level Boston Center
Mon 07:25:58 PM 41.8581 -72.8025 226° Southwest 374 430 34,000  Level Boston Center
Mon 07:27:00 PM 41.7719 -72.9189 225° Southwest 388 447 34,000  Level Boston Center
Mon 07:27:58 PM 41.6967 -73.0239 226° Southwest 393 452 34,000 -454 Level Boston Center
Mon 07:28:59 PM 41.6231 -73.1233 225° Southwest 398 458 33,100 -934 Descending Boston Center
Mon 07:30:00 PM 41.5494 -73.2250 226° Southwest 392 451 32,100 -545 Descending Boston Center
Mon 07:31:00 PM 41.4864 -73.3103 225° Southwest 382 440 32,000 -50 Descending Boston Center
Mon 07:32:00 PM 41.4125 -73.4089 225° Southwest 377 434 32,000  Level Boston Center
Mon 07:34:18 PM 41.2389 -73.6544 227° Southwest 378 435 32,000  Level New York Center
Mon 07:35:18 PM 41.1736 -73.7647 232° Southwest 383 441 32,000  Level New York Center
Mon 07:36:16 PM 41.1083 -73.8747 232° Southwest 383 441 32,000 -610 Level New York Center
Mon 07:37:16 PM 41.0428 -73.9844 232° Southwest 391 450 30,800 -1,512 Descending New York Center
Mon 07:38:19 PM 40.9750 -74.0994 232° Southwest 391 450 28,900 -1,835 Descending New York Center
Mon 07:39:17 PM 40.9119 -74.1978 230° Southwest 396 456 27,100 -1,462 Descending New York Center
Mon 07:40:18 PM 40.8461 -74.3125 233° Southwest 396 456 26,000 -545 Descending New York Center
Mon 07:41:18 PM 40.7736 -74.4292 231° Southwest 401 461 26,000  Level New York Center
Mon 07:42:17 PM 40.7033 -74.5431 231° Southwest 401 461 26,000  Level New York Center
Mon 07:43:18 PM 40.6331 -74.6569 231° Southwest 406 467 26,000  Level New York Center
Mon 07:44:16 PM 40.5606 -74.7703 230° Southwest 406 467 26,000  Level New York Center
Mon 07:45:16 PM 40.4836 -74.8831 228° Southwest 418 481 26,000  Level New York Center
Mon 07:46:17 PM 40.4047 -74.9928 227° Southwest 418 481 26,000 -446 Level New York Center
Mon 07:47:17 PM 40.3278 -75.1025 227° Southwest 423 487 25,100 -1,835 Descending New York Center
Mon 07:48:18 PM 40.2531 -75.2094 228° Southwest 423 487 22,300 -2,750 Descending New York Center
Mon 07:49:17 PM 40.1803 -75.3106 227° Southwest 409 471 19,600 -2,150 Descending New York Center
Mon 07:50:18 PM 40.1078 -75.4092 226° Southwest 388 447 18,000 -793 Descending New York Center
Mon 07:51:18 PM 40.0308 -75.5122 226° Southwest 374 430 18,000  Level New York Center
Mon 07:52:17 PM 39.9689 -75.6003 227° Southwest 363 418 18,000  Level New York Center
Mon 07:53:17 PM 39.8978 -75.7036 228° Southwest 357 411 18,000 -150 Level New York Center
Mon 07:54:17 PM 39.8431 -75.8133 237° Southwest 357 411 17,700 -1,545 Descending New York Center
Mon 07:56:35 PM 39.7167 -76.0500 235° Southwest 322 371 12,900 -1,500 Descending Potomac TRACON
Mon 07:57:29 PM 39.6833 -76.1167 237° Southwest 270 311 12,900 -450 Level Potomac TRACON
Mon 07:58:35 PM 39.6333 -76.2167 237° Southwest 269 310 12,000 -429 Descending Potomac TRACON
Mon 07:59:35 PM 39.6000 -76.2833 237° Southwest 267 307 12,000 -496 Level Potomac TRACON
Mon 08:00:36 PM 39.5333 -76.3500 218° Southwest 281 323 11,000 -991 Descending Potomac TRACON
Mon 08:01:30 PM 39.4833 -76.4000 218° Southwest 272 313 10,100 -1,350 Descending Potomac TRACON
Mon 08:02:36 PM 39.4333 -76.4833 232° Southwest 261 300 8,300 -1,537 Descending Potomac TRACON
Mon 08:03:31 PM 39.4167 -76.5667 256° West 257 296 7,000 -1,565 Descending Potomac TRACON
Mon 08:04:31 PM 39.3833 -76.6500 243° Southwest 253 291 5,300 -1,500 Descending Potomac TRACON
Mon 08:05:31 PM 39.3667 -76.7333 256° West 248 285 4,000 -645 Descending Potomac TRACON
Mon 08:06:32 PM 39.3500 -76.8167 256° West 210 242 4,000  Level Potomac TRACON
Mon 08:07:32 PM 39.3333 -76.8833 252° West 211 243 4,000 -333 Level Potomac TRACON
Mon 08:08:38 PM 39.2667 -76.9167 201° Southwest 202 232 3,300 -600 Descending Potomac TRACON
Mon 08:09:32 PM 39.2333 -76.9167 180° South 207 238 2,800 -368 Descending Potomac TRACON
Mon 08:10:32 PM 39.1833 -76.8833 153° Southeast 190 219 2,600 -446 Descending Potomac TRACON
Mon 08:11:33 PM 39.1833 -76.8167 90° East 173 199 1,900 -661 Descending Potomac TRACON
Mon 08:12:39 PM 39.1833 -76.7500 90° East 132 152 1,200 -650 Descending Potomac TRACON
Mon 08:13:33 PM 39.1833 -76.7167 90° East 122 140 600 -667 Descending Potomac TRACON
Mon 08:15:00 PM 39.1667 -76.6667 98° East  Level FlightAware Approximate
Mon 08:22:00 PM 39.1754 -76.6683 98° East  Level Estimated
Mon 08:23:00 PM 39.1754 -76.6683 98° East  Level Estimated
Mon 08:24:00 PM 39.1754 -76.6683 98° East  Level Estimated
Mon 08:25:00 PM 39.1754 -76.6683 98° East  Level Estimated
Mon 08:26:00 PM 39.1754 -76.6683 98° East  Level Estimated

Login

Don't have an account? Register now (free) for customized features, flight alerts, and more!